createdAt,value
2016-03-22T00:00:11.486Z,0
2016-03-22T00:01:11.504Z,0
2016-03-22T00:02:11.459Z,0
2016-03-22T00:03:11.479Z,0
2016-03-22T00:04:11.481Z,0
2016-03-22T00:05:11.467Z,0
2016-03-22T00:06:11.456Z,0
2016-03-22T00:07:11.473Z,0
2016-03-22T00:08:11.475Z,0
2016-03-22T00:09:11.494Z,0
2016-03-22T00:10:11.481Z,0
2016-03-22T00:11:11.500Z,0
2016-03-22T00:12:11.456Z,0
2016-03-22T00:13:11.458Z,0
2016-03-22T00:14:11.445Z,0
2016-03-22T00:15:11.464Z,0
2016-03-22T00:16:11.466Z,0
2016-03-22T00:17:11.484Z,0
2016-03-22T00:18:11.457Z,0
2016-03-22T00:19:11.474Z,0
2016-03-22T00:20:11.462Z,0
2016-03-22T00:21:11.465Z,0
2016-03-22T00:22:11.467Z,0
2016-03-22T00:23:11.485Z,0
2016-03-22T00:24:11.301Z,0
2016-03-22T00:25:11.443Z,0
2016-03-22T00:26:11.493Z,0
2016-03-22T00:27:11.496Z,0
2016-03-22T00:28:11.436Z,0
2016-03-22T00:29:11.439Z,0
2016-03-22T00:30:11.472Z,0
2016-03-22T00:31:11.428Z,0
2016-03-22T00:32:11.477Z,0
2016-03-22T00:33:11.433Z,0
2016-03-22T00:34:11.467Z,0
2016-03-22T00:35:11.422Z,0
2016-03-22T00:36:11.504Z,0
2016-03-22T00:37:11.427Z,0
2016-03-22T00:38:11.431Z,0
2016-03-22T00:39:11.402Z,0
2016-03-22T00:40:11.468Z,0
2016-03-22T00:41:11.423Z,0
2016-03-22T00:42:11.395Z,0
2016-03-22T00:43:11.398Z,0
2016-03-22T00:44:11.431Z,0
2016-03-22T00:45:11.449Z,0
2016-03-22T00:46:11.421Z,0
2016-03-22T00:47:11.424Z,0
2016-03-22T00:48:11.442Z,0
2016-03-22T00:49:11.382Z,0
2016-03-22T00:50:11.401Z,0
2016-03-22T00:51:11.419Z,0
2016-03-22T00:52:11.250Z,0
2016-03-22T00:53:11.408Z,0
2016-03-22T00:54:11.412Z,0
2016-03-22T00:55:11.398Z,0
2016-03-22T00:56:11.261Z,0
2016-03-22T00:57:11.419Z,0
2016-03-22T00:58:11.422Z,0
2016-03-22T00:59:11.408Z,0
2016-03-22T01:00:11.412Z,0
2016-03-22T01:01:11.446Z,0
2016-03-22T01:02:11.432Z,0
2016-03-22T01:03:11.373Z,0
2016-03-22T01:04:11.438Z,0
2016-03-22T01:05:11.394Z,0
2016-03-22T01:06:11.428Z,0
2016-03-22T01:07:11.383Z,0
2016-03-22T01:08:11.402Z,0
2016-03-22T01:09:11.436Z,0
2016-03-22T01:10:11.391Z,0
2016-03-22T01:11:11.223Z,0
2016-03-22T01:12:11.366Z,0
2016-03-22T01:13:11.337Z,0
2016-03-22T01:14:11.403Z,0
2016-03-22T01:15:11.374Z,0
2016-03-22T01:16:11.377Z,0
2016-03-22T01:17:11.379Z,0
2016-03-22T01:18:11.351Z,0
2016-03-22T01:19:11.353Z,0
2016-03-22T01:20:14.543Z,0
2016-03-22T01:21:11.390Z,0
2016-03-22T01:22:11.361Z,0
2016-03-22T01:23:11.365Z,0
2016-03-22T01:24:11.367Z,0
2016-03-22T01:25:11.338Z,0
2016-03-22T01:26:11.373Z,0
2016-03-22T01:27:11.359Z,0
2016-03-22T01:28:11.347Z,0
2016-03-22T01:29:11.349Z,0
2016-03-22T01:30:11.367Z,0
2016-03-22T01:31:11.370Z,0
2016-03-22T01:32:11.358Z,0
2016-03-22T01:33:11.328Z,0
2016-03-22T01:34:11.363Z,0
2016-03-22T01:35:11.334Z,0
2016-03-22T01:36:11.336Z,0
2016-03-22T01:37:11.339Z,0
2016-03-22T01:38:11.341Z,0
2016-03-22T01:39:11.361Z,0
2016-03-22T01:40:11.332Z,0
2016-03-22T01:41:11.350Z,0
2016-03-22T01:42:11.321Z,0
2016-03-22T01:43:11.355Z,0
2016-03-22T01:44:11.358Z,0
2016-03-22T01:45:11.329Z,0
2016-03-22T01:46:11.301Z,0
2016-03-22T01:47:11.334Z,0
2016-03-22T01:48:11.307Z,0
2016-03-22T01:49:11.356Z,0
2016-03-22T01:50:11.343Z,0
2016-03-22T01:51:11.299Z,0
2016-03-22T01:52:11.301Z,0
2016-03-22T01:53:11.320Z,0
2016-03-22T01:54:11.323Z,0
2016-03-22T01:55:11.294Z,0
2016-03-22T01:56:11.344Z,0
2016-03-22T01:57:11.311Z,0
2016-03-22T01:58:11.285Z,0
2016-03-22T01:59:11.259Z,0
2016-03-22T02:00:11.232Z,0
2016-03-22T02:01:11.268Z,0
2016-03-22T02:02:11.229Z,0
2016-03-22T02:03:11.226Z,0
2016-03-22T02:04:11.208Z,0
2016-03-22T02:05:11.222Z,0
2016-03-22T02:06:11.203Z,0
2016-03-22T02:07:11.046Z,0
2016-03-22T02:08:11.204Z,0
2016-03-22T02:09:11.189Z,0
2016-03-22T02:10:11.190Z,0
2016-03-22T02:11:11.223Z,0
2016-03-22T02:12:11.224Z,0
2016-03-22T02:13:11.209Z,0
2016-03-22T02:14:11.180Z,0
2016-03-22T02:15:11.152Z,0
2016-03-22T02:16:11.200Z,0
2016-03-22T02:17:11.187Z,0
2016-03-22T02:18:11.159Z,0
2016-03-22T02:19:11.145Z,0
2016-03-22T02:20:11.180Z,0
2016-03-22T02:21:11.198Z,0
2016-03-22T02:22:11.185Z,0
2016-03-22T02:23:11.141Z,0
2016-03-22T02:24:11.191Z,0
2016-03-22T02:25:11.177Z,0
2016-03-22T02:26:11.196Z,0
2016-03-22T02:27:11.167Z,0
2016-03-22T02:28:10.982Z,0
2016-03-22T02:29:11.157Z,0
2016-03-22T02:30:11.133Z,0
2016-03-22T02:31:11.151Z,0
2016-03-22T02:32:11.170Z,0
2016-03-22T02:33:11.126Z,0
2016-03-22T02:34:11.159Z,0
2016-03-22T02:35:11.179Z,0
2016-03-22T02:36:11.134Z,0
2016-03-22T02:37:11.120Z,0
2016-03-22T02:38:11.154Z,0
2016-03-22T02:39:11.126Z,0
2016-03-22T02:40:11.128Z,0
2016-03-22T02:41:11.148Z,0
2016-03-22T02:42:11.134Z,0
2016-03-22T02:43:11.136Z,0
2016-03-22T02:44:11.124Z,0
2016-03-22T02:45:11.142Z,0
2016-03-22T02:46:11.113Z,0
2016-03-22T02:47:11.116Z,0
2016-03-22T02:48:11.150Z,0
2016-03-22T02:49:11.106Z,0
2016-03-22T02:50:11.125Z,0
2016-03-22T02:51:11.174Z,0
2016-03-22T02:52:11.145Z,0
2016-03-22T02:53:11.102Z,0
2016-03-22T02:54:11.150Z,0
2016-03-22T02:55:11.122Z,0
2016-03-22T02:56:11.156Z,0
2016-03-22T02:57:11.128Z,0
2016-03-22T02:58:11.099Z,0
2016-03-22T02:59:11.118Z,0
2016-03-22T03:00:11.135Z,0
2016-03-22T03:01:11.123Z,0
2016-03-22T03:02:11.141Z,0
2016-03-22T03:03:11.112Z,0
2016-03-22T03:04:10.974Z,0
2016-03-22T03:05:11.118Z,0
2016-03-22T03:06:11.121Z,0
2016-03-22T03:07:11.107Z,0
2016-03-22T03:08:11.110Z,0
2016-03-22T03:09:11.098Z,0
2016-03-22T03:10:11.084Z,0
2016-03-22T03:11:11.118Z,0
2016-03-22T03:12:11.121Z,0
2016-03-22T03:13:11.108Z,0
2016-03-22T03:14:11.079Z,0
2016-03-22T03:15:11.082Z,0
2016-03-22T03:16:11.116Z,0
2016-03-22T03:17:11.073Z,0
2016-03-22T03:18:11.059Z,0
2016-03-22T03:19:11.077Z,0
2016-03-22T03:20:11.081Z,0
2016-03-22T03:21:11.098Z,0
2016-03-22T03:22:11.069Z,0
2016-03-22T03:23:11.088Z,0
2016-03-22T03:24:11.075Z,0
2016-03-22T03:25:11.062Z,0
2016-03-22T03:26:11.112Z,0
2016-03-22T03:27:11.114Z,0
2016-03-22T03:28:11.085Z,0
2016-03-22T03:29:11.120Z,0
2016-03-22T03:30:11.060Z,0
2016-03-22T03:31:11.125Z,0
2016-03-22T03:32:11.081Z,0
2016-03-22T03:33:11.052Z,0
2016-03-22T03:34:11.087Z,0
2016-03-22T03:35:11.074Z,0
2016-03-22T03:36:11.060Z,0
2016-03-22T03:37:11.079Z,0
2016-03-22T03:38:11.066Z,0
2016-03-22T03:39:11.085Z,0
2016-03-22T03:40:11.056Z,0
2016-03-22T03:41:11.058Z,0
2016-03-22T03:42:11.077Z,0
2016-03-22T03:43:11.079Z,0
2016-03-22T03:44:11.082Z,0
2016-03-22T03:45:11.069Z,0
2016-03-22T03:46:11.056Z,0
2016-03-22T03:47:11.090Z,0
2016-03-22T03:48:11.062Z,0
2016-03-22T03:49:11.033Z,0
2016-03-22T03:50:11.035Z,0
2016-03-22T03:51:11.039Z,0
2016-03-22T03:52:11.041Z,0
2016-03-22T03:53:11.028Z,0
2016-03-22T03:54:11.031Z,0
2016-03-22T03:55:11.049Z,0
2016-03-22T03:56:11.036Z,0
2016-03-22T03:57:11.039Z,0
2016-03-22T03:58:11.057Z,0
2016-03-22T03:59:11.044Z,0
2016-03-22T04:00:11.032Z,0
2016-03-22T04:01:11.096Z,0
2016-03-22T04:02:11.037Z,0
2016-03-22T04:03:11.040Z,0
2016-03-22T04:04:11.026Z,0
2016-03-22T04:05:11.013Z,0
2016-03-22T04:06:11.016Z,0
2016-03-22T04:07:11.035Z,0
2016-03-22T04:08:11.021Z,0
2016-03-22T04:09:11.009Z,0
2016-03-22T04:10:11.042Z,0
2016-03-22T04:11:11.014Z,0
2016-03-22T04:12:10.876Z,0
2016-03-22T04:13:11.020Z,0
2016-03-22T04:14:10.990Z,0
2016-03-22T04:15:10.868Z,0
2016-03-22T04:16:11.012Z,0
2016-03-22T04:17:10.998Z,0
2016-03-22T04:18:11.017Z,0
2016-03-22T04:19:11.004Z,0
2016-03-22T04:20:10.991Z,0
2016-03-22T04:21:11.010Z,0
2016-03-22T04:22:10.981Z,0
2016-03-22T04:23:10.968Z,0
2016-03-22T04:24:11.003Z,0
2016-03-22T04:25:11.208Z,0
2016-03-22T04:26:10.977Z,0
2016-03-22T04:27:10.963Z,0
2016-03-22T04:28:10.997Z,0
2016-03-22T04:29:10.969Z,0
2016-03-22T04:30:10.972Z,0
2016-03-22T04:31:10.990Z,0
2016-03-22T04:32:10.992Z,0
2016-03-22T04:33:10.996Z,0
2016-03-22T04:34:11.013Z,0
2016-03-22T04:35:10.969Z,0
2016-03-22T04:36:10.956Z,0
2016-03-22T04:37:10.974Z,0
2016-03-22T04:38:10.977Z,0
2016-03-22T04:39:10.980Z,0
2016-03-22T04:40:11.186Z,0
2016-03-22T04:41:10.938Z,0
2016-03-22T04:42:10.956Z,0
2016-03-22T04:43:10.960Z,0
2016-03-22T04:44:10.978Z,0
2016-03-22T04:45:10.933Z,0
2016-03-22T04:46:10.937Z,0
2016-03-22T04:47:10.970Z,0
2016-03-22T04:48:10.957Z,0
2016-03-22T04:49:10.929Z,0
2016-03-22T04:50:10.931Z,0
2016-03-22T04:51:10.950Z,0
2016-03-22T04:52:10.937Z,0
2016-03-22T04:53:10.955Z,0
2016-03-22T04:54:10.927Z,0
2016-03-22T04:55:11.022Z,0
2016-03-22T04:56:10.933Z,0
2016-03-22T04:57:10.950Z,0
2016-03-22T04:58:10.938Z,0
2016-03-22T04:59:10.955Z,0
2016-03-22T05:00:10.911Z,0
2016-03-22T05:01:10.914Z,0
2016-03-22T05:02:10.916Z,0
2016-03-22T05:03:10.935Z,0
2016-03-22T05:04:10.953Z,0
2016-03-22T05:05:10.910Z,0
2016-03-22T05:06:10.943Z,0
2016-03-22T05:07:10.930Z,0
2016-03-22T05:08:10.918Z,0
2016-03-22T05:09:10.904Z,0
2016-03-22T05:10:10.266Z,0
2016-03-22T05:11:10.941Z,0
2016-03-22T05:12:10.928Z,0
2016-03-22T05:13:10.899Z,0
2016-03-22T05:14:10.918Z,0
2016-03-22T05:15:10.920Z,0
2016-03-22T05:16:10.893Z,0
2016-03-22T05:17:10.879Z,0
2016-03-22T05:18:10.913Z,0
2016-03-22T05:19:10.900Z,0
2016-03-22T05:20:10.918Z,0
2016-03-22T05:21:10.875Z,0
2016-03-22T05:22:10.877Z,0
2016-03-22T05:23:10.880Z,0
2016-03-22T05:24:10.928Z,0
2016-03-22T05:25:11.072Z,0
2016-03-22T05:26:10.888Z,0
2016-03-22T05:27:10.875Z,0
2016-03-22T05:28:10.894Z,0
2016-03-22T05:29:10.880Z,0
2016-03-22T05:30:10.867Z,0
2016-03-22T05:31:10.869Z,0
2016-03-22T05:32:10.872Z,0
2016-03-22T05:33:10.891Z,0
2016-03-22T05:34:10.877Z,0
2016-03-22T05:35:10.866Z,0
2016-03-22T05:36:10.899Z,0
2016-03-22T05:37:10.877Z,0
2016-03-22T05:38:10.852Z,0
2016-03-22T05:39:10.745Z,0
2016-03-22T05:40:25.007Z,5
2016-03-22T05:41:10.822Z,5
2016-03-22T05:42:10.825Z,5
2016-03-22T05:43:10.844Z,5
2016-03-22T05:44:10.846Z,5
2016-03-22T05:45:10.849Z,5
2016-03-22T05:46:10.817Z,5
2016-03-22T05:47:10.680Z,5
2016-03-22T05:48:10.822Z,5
2016-03-22T05:49:10.810Z,5
2016-03-22T05:50:10.844Z,5
2016-03-22T05:51:10.815Z,5
2016-03-22T05:52:10.834Z,10
2016-03-22T05:53:10.852Z,10
2016-03-22T05:54:10.824Z,10
2016-03-22T05:55:10.810Z,10
2016-03-22T05:56:10.813Z,10
2016-03-22T05:57:10.832Z,10
2016-03-22T05:58:10.818Z,10
2016-03-22T05:59:10.807Z,10
2016-03-22T06:00:10.824Z,10
2016-03-22T06:01:10.812Z,10
2016-03-22T06:02:10.829Z,10
2016-03-22T06:03:10.817Z,10
2016-03-22T06:04:10.804Z,10
2016-03-22T06:05:10.790Z,10
2016-03-22T06:06:10.809Z,15
2016-03-22T06:07:10.843Z,15
2016-03-22T06:08:10.783Z,15
2016-03-22T06:09:10.817Z,15
2016-03-22T06:10:10.851Z,15
2016-03-22T06:11:10.807Z,15
2016-03-22T06:12:10.825Z,15
2016-03-22T06:13:10.827Z,15
2016-03-22T06:14:10.784Z,15
2016-03-22T06:15:10.786Z,15
2016-03-22T06:16:10.789Z,20
2016-03-22T06:17:10.619Z,20
2016-03-22T06:18:10.794Z,20
2016-03-22T06:19:10.859Z,20
2016-03-22T06:20:10.768Z,25
2016-03-22T06:21:10.803Z,25
2016-03-22T06:22:10.789Z,25
2016-03-22T06:23:10.792Z,25
2016-03-22T06:24:10.794Z,25
2016-03-22T06:25:11.172Z,30
2016-03-22T06:26:10.785Z,30
2016-03-22T06:27:10.818Z,30
2016-03-22T06:28:10.774Z,30
2016-03-22T06:29:10.761Z,35
2016-03-22T06:30:10.765Z,35
2016-03-22T06:31:10.767Z,35
2016-03-22T06:32:10.785Z,35
2016-03-22T06:33:10.773Z,40
2016-03-22T06:34:10.775Z,40
2016-03-22T06:35:10.762Z,40
2016-03-22T06:36:10.764Z,40
2016-03-22T06:37:10.768Z,45
2016-03-22T06:38:10.754Z,45
2016-03-22T06:39:10.789Z,45
2016-03-22T06:40:10.775Z,45
2016-03-22T06:41:10.778Z,45
2016-03-22T06:42:10.765Z,45
2016-03-22T06:43:10.783Z,45
2016-03-22T06:44:10.771Z,45
2016-03-22T06:45:10.773Z,50
2016-03-22T06:46:10.745Z,50
2016-03-22T06:47:10.747Z,50
2016-03-22T06:48:10.797Z,50
2016-03-22T06:49:10.736Z,50
2016-03-22T06:50:10.771Z,50
2016-03-22T06:51:10.773Z,50
2016-03-22T06:52:10.776Z,50
2016-03-22T06:53:10.622Z,50
2016-03-22T06:54:10.750Z,50
2016-03-22T06:55:10.753Z,50
2016-03-22T06:56:10.755Z,55
2016-03-22T06:57:10.758Z,55
2016-03-22T06:58:10.760Z,55
2016-03-22T06:59:10.733Z,55
2016-03-22T07:00:10.766Z,55
2016-03-22T07:01:10.738Z,55
2016-03-22T07:02:10.787Z,55
2016-03-22T07:03:10.790Z,55
2016-03-22T07:04:10.762Z,60
2016-03-22T07:05:10.733Z,60
2016-03-22T07:06:10.752Z,60
2016-03-22T07:07:10.754Z,65
2016-03-22T07:08:10.731Z,70
2016-03-22T07:09:10.733Z,75
2016-03-22T07:10:10.736Z,75
2016-03-22T07:11:10.723Z,80
2016-03-22T07:12:10.772Z,85
2016-03-22T07:13:10.729Z,85
2016-03-22T07:14:10.731Z,90
2016-03-22T07:15:10.765Z,90
2016-03-22T07:16:10.721Z,90
2016-03-22T07:17:10.755Z,95
2016-03-22T07:18:10.742Z,100
2016-03-22T07:19:10.760Z,100
2016-03-22T07:20:10.732Z,105
2016-03-22T07:21:10.780Z,110
2016-03-22T07:22:10.705Z,110
2016-03-22T07:23:10.771Z,115
2016-03-22T07:24:10.742Z,120
2016-03-22T07:25:10.760Z,125
2016-03-22T07:26:10.732Z,130
2016-03-22T07:27:10.765Z,130
2016-03-22T07:28:10.784Z,135
2016-03-22T07:29:10.756Z,135
2016-03-22T07:30:10.759Z,135
2016-03-22T07:31:10.714Z,135
2016-03-22T07:32:10.732Z,140
2016-03-22T07:33:10.735Z,140
2016-03-22T07:34:10.706Z,140
2016-03-22T07:35:10.725Z,140
2016-03-22T07:36:10.728Z,145
2016-03-22T07:37:10.731Z,145
2016-03-22T07:38:10.764Z,145
2016-03-22T07:39:10.736Z,150
2016-03-22T07:40:10.723Z,150
2016-03-22T07:41:10.709Z,155
2016-03-22T07:42:10.744Z,155
2016-03-22T07:43:10.761Z,160
2016-03-22T07:44:10.718Z,160
2016-03-22T07:45:10.752Z,165
2016-03-22T07:46:10.786Z,170
2016-03-22T07:47:10.789Z,175
2016-03-22T07:48:10.869Z,180
2016-03-22T07:49:10.731Z,180
2016-03-22T07:50:10.749Z,190
2016-03-22T07:51:10.706Z,185
2016-03-22T07:52:10.724Z,190
2016-03-22T07:53:10.710Z,195
2016-03-22T07:54:10.729Z,200
2016-03-22T07:55:10.747Z,205
2016-03-22T07:56:10.749Z,210
2016-03-22T07:57:10.737Z,210
2016-03-22T07:58:10.755Z,210
2016-03-22T07:59:10.727Z,210
2016-03-22T08:00:10.745Z,205
2016-03-22T08:01:10.763Z,195
2016-03-22T08:02:10.766Z,210
2016-03-22T08:03:10.753Z,210
2016-03-22T08:04:10.740Z,205
2016-03-22T08:05:10.743Z,205
2016-03-22T08:06:10.620Z,205
2016-03-22T08:07:10.749Z,200
2016-03-22T08:08:10.767Z,200
2016-03-22T08:09:10.754Z,200
2016-03-22T08:10:10.616Z,210
2016-03-22T08:11:10.634Z,195
2016-03-22T08:12:10.762Z,195
2016-03-22T08:13:10.749Z,195
2016-03-22T08:14:10.767Z,185
2016-03-22T08:15:10.770Z,185
2016-03-22T08:16:10.788Z,185
2016-03-22T08:17:10.775Z,180
2016-03-22T08:18:10.794Z,180
2016-03-22T08:19:10.781Z,185
2016-03-22T08:20:10.783Z,185
2016-03-22T08:21:10.786Z,190
2016-03-22T08:22:10.773Z,195
2016-03-22T08:23:10.777Z,200
2016-03-22T08:24:10.779Z,205
2016-03-22T08:25:10.828Z,210
2016-03-22T08:26:10.768Z,215
2016-03-22T08:27:10.818Z,220
2016-03-22T08:28:10.821Z,235
2016-03-22T08:29:11.027Z,240
2016-03-22T08:30:10.811Z,250
2016-03-22T08:31:10.844Z,250
2016-03-22T08:32:10.846Z,250
2016-03-22T08:33:10.818Z,260
2016-03-22T08:34:10.790Z,250
2016-03-22T08:35:10.823Z,250
2016-03-22T08:36:10.811Z,245
2016-03-22T08:37:10.813Z,250
2016-03-22T08:38:10.801Z,255
2016-03-22T08:39:10.678Z,255
2016-03-22T08:40:10.806Z,260
2016-03-22T08:41:10.840Z,265
2016-03-22T08:42:10.827Z,270
2016-03-22T08:43:10.830Z,270
2016-03-22T08:44:10.817Z,280
2016-03-22T08:45:10.836Z,290
2016-03-22T08:46:10.869Z,295
2016-03-22T08:47:10.840Z,290
2016-03-22T08:48:10.140Z,285
2016-03-22T08:49:10.861Z,280
2016-03-22T08:50:10.833Z,270
2016-03-22T08:51:10.836Z,250
2016-03-22T08:52:10.854Z,235
2016-03-22T08:53:10.841Z,220
2016-03-22T08:54:10.687Z,215
2016-03-22T08:55:10.878Z,215
2016-03-22T08:56:10.880Z,215
2016-03-22T08:57:10.835Z,215
2016-03-22T08:58:10.855Z,210
2016-03-22T08:59:10.857Z,205
2016-03-22T09:00:10.704Z,200
2016-03-22T09:01:10.879Z,200
2016-03-22T09:02:10.882Z,195
2016-03-22T09:03:10.712Z,190
2016-03-22T09:04:10.901Z,195
2016-03-22T09:05:10.857Z,200
2016-03-22T09:06:10.876Z,200
2016-03-22T09:07:10.860Z,200
2016-03-22T09:08:10.878Z,200
2016-03-22T09:09:10.865Z,200
2016-03-22T09:10:10.915Z,205
2016-03-22T09:11:10.886Z,205
2016-03-22T09:12:10.889Z,210
2016-03-22T09:13:10.908Z,210
2016-03-22T09:14:10.879Z,215
2016-03-22T09:15:10.928Z,215
2016-03-22T09:16:10.916Z,210
2016-03-22T09:17:10.902Z,210
2016-03-22T09:18:10.983Z,205
2016-03-22T09:19:10.891Z,205
2016-03-22T09:20:10.895Z,200
2016-03-22T09:21:10.882Z,200
2016-03-22T09:22:10.899Z,205
2016-03-22T09:23:10.902Z,190
2016-03-22T09:24:10.905Z,190
2016-03-22T09:25:11.065Z,190
2016-03-22T09:26:10.895Z,190
2016-03-22T09:27:10.930Z,190
2016-03-22T09:28:10.901Z,190
2016-03-22T09:29:10.887Z,190
2016-03-22T09:30:10.937Z,190
2016-03-22T09:31:10.924Z,195
2016-03-22T09:32:10.896Z,195
2016-03-22T09:33:10.758Z,195
2016-03-22T09:34:10.917Z,195
2016-03-22T09:35:10.920Z,200
2016-03-22T09:36:10.906Z,200
2016-03-22T09:37:12.332Z,205
2016-03-22T09:38:10.897Z,210
2016-03-22T09:39:10.914Z,215
2016-03-22T09:40:10.917Z,220
2016-03-22T09:41:10.951Z,225
2016-03-22T09:42:10.923Z,225
2016-03-22T09:43:10.941Z,225
2016-03-22T09:44:10.944Z,240
2016-03-22T09:45:10.961Z,250
2016-03-22T09:46:10.934Z,225
2016-03-22T09:47:10.921Z,215
2016-03-22T09:48:10.924Z,225
2016-03-22T09:49:10.926Z,250
2016-03-22T09:50:10.929Z,255
2016-03-22T09:51:10.947Z,260
2016-03-22T09:52:10.965Z,260
2016-03-22T09:53:10.921Z,265
2016-03-22T09:54:10.924Z,275
2016-03-22T09:55:10.973Z,270
2016-03-22T09:56:10.930Z,280
2016-03-22T09:57:11.854Z,290
2016-03-22T09:58:10.763Z,300
2016-03-22T09:59:10.937Z,305
2016-03-22T10:00:10.924Z,315
2016-03-22T10:01:10.959Z,330
2016-03-22T10:02:10.929Z,330
2016-03-22T10:03:10.964Z,340
2016-03-22T10:04:10.951Z,340
2016-03-22T10:05:10.953Z,340
2016-03-22T10:06:10.973Z,330
2016-03-22T10:07:10.943Z,320
2016-03-22T10:08:10.945Z,315
2016-03-22T10:09:10.981Z,315
2016-03-22T10:10:10.967Z,310
2016-03-22T10:11:10.970Z,305
2016-03-22T10:12:10.956Z,300
2016-03-22T10:13:10.975Z,290
2016-03-22T10:14:10.962Z,275
2016-03-22T10:15:10.981Z,255
2016-03-22T10:16:11.014Z,215
2016-03-22T10:17:11.002Z,210
2016-03-22T10:18:10.988Z,205
2016-03-22T10:19:10.960Z,200
2016-03-22T10:20:11.010Z,205
2016-03-22T10:21:10.980Z,210
2016-03-22T10:22:10.983Z,220
2016-03-22T10:23:11.033Z,220
2016-03-22T10:24:10.988Z,220
2016-03-22T10:25:11.007Z,230
2016-03-22T10:26:11.057Z,235
2016-03-22T10:27:10.997Z,240
2016-03-22T10:28:11.015Z,240
2016-03-22T10:29:11.002Z,240
2016-03-22T10:30:11.021Z,250
2016-03-22T10:31:10.992Z,265
2016-03-22T10:32:11.026Z,270
2016-03-22T10:33:11.013Z,255
2016-03-22T10:34:11.000Z,260
2016-03-22T10:35:11.050Z,260
2016-03-22T10:36:11.021Z,255
2016-03-22T10:37:11.024Z,245
2016-03-22T10:38:11.026Z,215
2016-03-22T10:39:11.045Z,210
2016-03-22T10:40:11.032Z,210
2016-03-22T10:41:11.269Z,215
2016-03-22T10:42:11.052Z,215
2016-03-22T10:43:11.024Z,215
2016-03-22T10:44:10.886Z,220
2016-03-22T10:45:11.045Z,210
2016-03-22T10:46:11.064Z,205
2016-03-22T10:47:11.097Z,195
2016-03-22T10:48:11.053Z,190
2016-03-22T10:49:11.056Z,190
2016-03-22T10:50:11.075Z,190
2016-03-22T10:51:11.061Z,195
2016-03-22T10:52:11.032Z,190
2016-03-22T10:53:11.082Z,195
2016-03-22T10:54:11.069Z,230
2016-03-22T10:55:11.072Z,250
2016-03-22T10:56:11.185Z,240
2016-03-22T10:57:11.093Z,230
2016-03-22T10:58:11.080Z,220
2016-03-22T10:59:11.067Z,240
2016-03-22T11:00:11.118Z,240
2016-03-22T11:01:11.057Z,255
2016-03-22T11:02:11.090Z,255
2016-03-22T11:03:11.079Z,255
2016-03-22T11:04:11.141Z,255
2016-03-22T11:05:11.060Z,260
2016-03-22T11:06:11.056Z,270
2016-03-22T11:07:11.115Z,280
2016-03-22T11:08:11.113Z,295
2016-03-22T11:09:11.110Z,305
2016-03-22T11:10:11.078Z,310
2016-03-22T11:11:11.111Z,320
2016-03-22T11:12:11.126Z,325
2016-03-22T11:13:11.065Z,315
2016-03-22T11:14:11.065Z,315
2016-03-22T11:15:11.130Z,310
2016-03-22T11:16:11.085Z,315
2016-03-22T11:17:11.258Z,310
2016-03-22T11:18:11.088Z,315
2016-03-22T11:19:11.076Z,320
2016-03-22T11:20:11.077Z,315
2016-03-22T11:21:11.094Z,300
2016-03-22T11:22:11.097Z,275
2016-03-22T11:23:11.099Z,315
2016-03-22T11:24:11.071Z,320
2016-03-22T11:25:11.105Z,285
2016-03-22T11:26:11.107Z,310
2016-03-22T11:27:10.938Z,300
2016-03-22T11:28:11.113Z,290
2016-03-22T11:29:11.068Z,280
2016-03-22T11:30:11.103Z,250
2016-03-22T11:31:11.089Z,220
2016-03-22T11:32:11.124Z,220
2016-03-22T11:33:11.158Z,210
2016-03-22T11:34:11.129Z,200
2016-03-22T11:35:11.100Z,195
2016-03-22T11:36:11.103Z,190
2016-03-22T11:37:11.153Z,190
2016-03-22T11:38:11.156Z,190
2016-03-22T11:39:11.127Z,190
2016-03-22T11:40:11.129Z,190
2016-03-22T11:41:11.133Z,190
2016-03-22T11:42:11.119Z,195
2016-03-22T11:43:11.185Z,200
2016-03-22T11:44:11.141Z,210
2016-03-22T11:45:11.174Z,215
2016-03-22T11:46:11.130Z,225
2016-03-22T11:47:11.133Z,230
2016-03-22T11:48:11.151Z,235
2016-03-22T11:49:11.154Z,245
2016-03-22T11:50:11.124Z,255
2016-03-22T11:51:11.128Z,255
2016-03-22T11:52:11.162Z,275
2016-03-22T11:53:11.165Z,295
2016-03-22T11:54:11.182Z,265
2016-03-22T11:55:11.138Z,285
2016-03-22T11:56:11.032Z,270
2016-03-22T11:57:11.176Z,265
2016-03-22T11:58:11.178Z,290
2016-03-22T11:59:11.196Z,285
2016-03-22T12:00:11.137Z,275
2016-03-22T12:01:11.186Z,250
2016-03-22T12:02:11.173Z,230
2016-03-22T12:03:11.176Z,230
2016-03-22T12:04:11.194Z,230
2016-03-22T12:05:11.181Z,235
2016-03-22T12:06:11.231Z,235
2016-03-22T12:07:11.186Z,240
2016-03-22T12:08:11.236Z,240
2016-03-22T12:09:11.191Z,240
2016-03-22T12:10:11.195Z,240
2016-03-22T12:11:11.213Z,245
2016-03-22T12:12:11.231Z,240
2016-03-22T12:13:11.187Z,235
2016-03-22T12:14:11.189Z,235
2016-03-22T12:15:11.239Z,235
2016-03-22T12:16:11.227Z,230
2016-03-22T12:17:11.260Z,220
2016-03-22T12:18:11.247Z,215
2016-03-22T12:19:11.234Z,205
2016-03-22T12:20:11.238Z,195
2016-03-22T12:21:11.255Z,195
2016-03-22T12:22:11.227Z,195
2016-03-22T12:23:11.246Z,200
2016-03-22T12:24:11.248Z,220
2016-03-22T12:25:11.251Z,200
2016-03-22T12:26:11.238Z,200
2016-03-22T12:27:11.256Z,210
2016-03-22T12:28:11.242Z,240
2016-03-22T12:29:11.245Z,235
2016-03-22T12:30:11.295Z,255
2016-03-22T12:31:11.267Z,250
2016-03-22T12:32:11.270Z,260
2016-03-22T12:33:11.287Z,245
2016-03-22T12:34:11.259Z,250
2016-03-22T12:35:11.277Z,255
2016-03-22T12:36:11.265Z,245
2016-03-22T12:37:11.283Z,250
2016-03-22T12:38:11.332Z,225
2016-03-22T12:39:11.304Z,215
2016-03-22T12:40:11.322Z,220
2016-03-22T12:41:11.262Z,225
2016-03-22T12:42:11.281Z,225
2016-03-22T12:43:11.111Z,230
2016-03-22T12:44:11.317Z,235
2016-03-22T12:45:11.272Z,235
2016-03-22T12:46:11.339Z,280
2016-03-22T12:47:11.310Z,275
2016-03-22T12:48:11.328Z,270
2016-03-22T12:49:11.316Z,270
2016-03-22T12:50:11.349Z,275
2016-03-22T12:51:11.336Z,240
2016-03-22T12:52:11.324Z,250
2016-03-22T12:53:11.342Z,260
2016-03-22T12:54:11.313Z,285
2016-03-22T12:55:11.315Z,260
2016-03-22T12:56:11.335Z,260
2016-03-22T12:57:11.305Z,255
2016-03-22T12:58:11.308Z,250
2016-03-22T12:59:11.342Z,245
2016-03-22T13:00:11.329Z,245
2016-03-22T13:01:11.347Z,240
2016-03-22T13:02:11.350Z,235
2016-03-22T13:03:11.337Z,235
2016-03-22T13:04:11.371Z,235
2016-03-22T13:05:11.373Z,230
2016-03-22T13:06:11.345Z,230
2016-03-22T13:07:11.353Z,230
2016-03-22T13:08:11.386Z,225
2016-03-22T13:09:11.390Z,220
2016-03-22T13:10:11.408Z,215
2016-03-22T13:11:11.364Z,210
2016-03-22T13:12:11.366Z,205
2016-03-22T13:13:11.400Z,205
2016-03-22T13:14:11.372Z,195
2016-03-22T13:15:11.405Z,185
2016-03-22T13:16:11.393Z,180
2016-03-22T13:17:11.396Z,185
2016-03-22T13:18:11.413Z,190
2016-03-22T13:19:11.385Z,210
2016-03-22T13:20:11.388Z,210
2016-03-22T13:21:11.421Z,215
2016-03-22T13:22:11.424Z,230
2016-03-22T13:23:11.412Z,235
2016-03-22T13:24:11.429Z,240
2016-03-22T13:25:11.401Z,240
2016-03-22T13:26:11.434Z,225
2016-03-22T13:27:11.423Z,250
2016-03-22T13:28:11.425Z,250
2016-03-22T13:29:11.412Z,250
2016-03-22T13:30:11.431Z,260
2016-03-22T13:31:11.433Z,265
2016-03-22T13:32:11.420Z,260
2016-03-22T13:33:11.454Z,255
2016-03-22T13:34:11.409Z,250
2016-03-22T13:35:11.412Z,240
2016-03-22T13:36:11.461Z,235
2016-03-22T13:37:11.465Z,235
2016-03-22T13:38:11.436Z,235
2016-03-22T13:39:11.470Z,230
2016-03-22T13:40:11.458Z,230
2016-03-22T13:41:11.460Z,225
2016-03-22T13:42:11.463Z,195
2016-03-22T13:43:11.466Z,195
2016-03-22T13:44:11.469Z,195
2016-03-22T13:45:11.471Z,190
2016-03-22T13:46:11.488Z,195
2016-03-22T13:47:11.522Z,220
2016-03-22T13:48:11.494Z,230
2016-03-22T13:49:11.466Z,210
2016-03-22T13:50:11.485Z,200
2016-03-22T13:51:11.502Z,200
2016-03-22T13:52:11.504Z,205
2016-03-22T13:53:11.493Z,200
2016-03-22T13:54:11.510Z,220
2016-03-22T13:55:11.529Z,190
2016-03-22T13:56:11.500Z,180
2016-03-22T13:57:11.518Z,175
2016-03-22T13:58:11.490Z,170
2016-03-22T13:59:11.492Z,175
2016-03-22T14:00:11.558Z,165
2016-03-22T14:01:11.545Z,160
2016-03-22T14:02:11.501Z,160
2016-03-22T14:03:11.550Z,160
2016-03-22T14:04:11.490Z,170
2016-03-22T14:05:11.571Z,180
2016-03-22T14:06:11.511Z,185
2016-03-22T14:07:11.545Z,165
2016-03-22T14:08:11.501Z,185
2016-03-22T14:09:11.550Z,155
2016-03-22T14:10:11.554Z,155
2016-03-22T14:11:11.572Z,155
2016-03-22T14:12:11.528Z,155
2016-03-22T14:13:11.561Z,155